sensor_id;sensor_type;location;lat;lon;timestamp;temperature;humidity
61016;DHT22;46902;52.920;6.536;2023-05-23T00:02:24;15.80;99.90
61016;DHT22;46902;52.920;6.536;2023-05-23T00:04:49;15.70;99.90
61016;DHT22;46902;52.920;6.536;2023-05-23T00:07:16;15.80;99.90
61016;DHT22;46902;52.920;6.536;2023-05-23T00:09:42;15.70;99.90
61016;DHT22;46902;52.920;6.536;2023-05-23T00:12:07;15.70;99.90
61016;DHT22;46902;52.920;6.536;2023-05-23T00:14:33;15.70;99.90
61016;DHT22;46902;52.920;6.536;2023-05-23T00:16:59;15.70;99.90
61016;DHT22;46902;52.920;6.536;2023-05-23T00:19:28;15.70;99.90
61016;DHT22;46902;52.920;6.536;2023-05-23T00:21:53;15.70;99.90
61016;DHT22;46902;52.920;6.536;2023-05-23T00:24:22;15.70;99.90
61016;DHT22;46902;52.920;6.536;2023-05-23T00:26:48;15.70;99.90
61016;DHT22;46902;52.920;6.536;2023-05-23T00:29:14;15.70;99.90
61016;DHT22;46902;52.920;6.536;2023-05-23T00:31:44;15.70;99.90
61016;DHT22;46902;52.920;6.536;2023-05-23T00:34:16;15.60;99.90
61016;DHT22;46902;52.920;6.536;2023-05-23T00:36:45;15.60;99.90
61016;DHT22;46902;52.920;6.536;2023-05-23T00:39:14;15.60;99.90
61016;DHT22;46902;52.920;6.536;2023-05-23T00:41:48;15.60;99.90
61016;DHT22;46902;52.920;6.536;2023-05-23T00:44:14;15.50;99.90
61016;DHT22;46902;52.920;6.536;2023-05-23T00:46:40;15.40;99.90
61016;DHT22;46902;52.920;6.536;2023-05-23T00:49:08;15.40;99.90
61016;DHT22;46902;52.920;6.536;2023-05-23T00:51:34;15.40;99.90
61016;DHT22;46902;52.920;6.536;2023-05-23T00:54:01;15.50;99.90
61016;DHT22;46902;52.920;6.536;2023-05-23T00:56:29;15.40;99.90
61016;DHT22;46902;52.920;6.536;2023-05-23T00:58:55;15.40;99.90
61016;DHT22;46902;52.920;6.536;2023-05-23T01:01:21;15.40;99.90
61016;DHT22;46902;52.920;6.536;2023-05-23T01:03:48;15.30;99.90
61016;DHT22;46902;52.920;6.536;2023-05-23T01:06:15;15.40;99.90
61016;DHT22;46902;52.920;6.536;2023-05-23T01:08:42;15.30;99.90
61016;DHT22;46902;52.920;6.536;2023-05-23T01:11:23;15.30;99.90
61016;DHT22;46902;52.920;6.536;2023-05-23T01:14:00;15.30;99.90
61016;DHT22;46902;52.920;6.536;2023-05-23T01:16:47;15.30;99.90
61016;DHT22;46902;52.920;6.536;2023-05-23T01:19:59;15.20;99.90
61016;DHT22;46902;52.920;6.536;2023-05-23T01:22:53;15.30;99.90
61016;DHT22;46902;52.920;6.536;2023-05-23T01:25:27;15.20;99.90
61016;DHT22;46902;52.920;6.536;2023-05-23T01:27:56;15.20;99.90
61016;DHT22;46902;52.920;6.536;2023-05-23T01:30:24;15.20;99.90
61016;DHT22;46902;52.920;6.536;2023-05-23T01:32:53;15.20;99.90
61016;DHT22;46902;52.920;6.536;2023-05-23T01:35:24;15.10;99.90
61016;DHT22;46902;52.920;6.536;2023-05-23T01:37:52;15.10;99.90
61016;DHT22;46902;52.920;6.536;2023-05-23T01:40:18;15.10;99.90
61016;DHT22;46902;52.920;6.536;2023-05-23T01:42:43;15.10;99.90
61016;DHT22;46902;52.920;6.536;2023-05-23T01:45:10;15.10;99.90
61016;DHT22;46902;52.920;6.536;2023-05-23T01:47:37;15.10;99.90
61016;DHT22;46902;52.920;6.536;2023-05-23T01:50:03;15.10;99.90
61016;DHT22;46902;52.920;6.536;2023-05-23T01:52:31;15.10;99.90
61016;DHT22;46902;52.920;6.536;2023-05-23T01:54:56;15.00;99.90
61016;DHT22;46902;52.920;6.536;2023-05-23T01:57:25;15.00;99.90
61016;DHT22;46902;52.920;6.536;2023-05-23T01:59:52;15.00;99.90
61016;DHT22;46902;52.920;6.536;2023-05-23T02:02:18;15.00;99.90
61016;DHT22;46902;52.920;6.536;2023-05-23T02:04:43;14.90;99.90
61016;DHT22;46902;52.920;6.536;2023-05-23T02:07:09;14.90;99.90
61016;DHT22;46902;52.920;6.536;2023-05-23T02:09:34;14.80;99.90
61016;DHT22;46902;52.920;6.536;2023-05-23T02:12:00;14.80;99.90
61016;DHT22;46902;52.920;6.536;2023-05-23T02:14:26;14.70;99.90
61016;DHT22;46902;52.920;6.536;2023-05-23T02:16:53;14.70;99.90
61016;DHT22;46902;52.920;6.536;2023-05-23T02:19:19;14.70;99.90
61016;DHT22;46902;52.920;6.536;2023-05-23T02:21:44;14.60;99.90
61016;DHT22;46902;52.920;6.536;2023-05-23T02:24:10;14.60;99.90
61016;DHT22;46902;52.920;6.536;2023-05-23T02:26:35;14.50;99.90
61016;DHT22;46902;52.920;6.536;2023-05-23T02:29:01;14.50;99.90
61016;DHT22;46902;52.920;6.536;2023-05-23T02:31:27;14.50;99.90
61016;DHT22;46902;52.920;6.536;2023-05-23T02:33:53;14.50;99.90
61016;DHT22;46902;52.920;6.536;2023-05-23T02:36:18;14.50;99.90
61016;DHT22;46902;52.920;6.536;2023-05-23T02:38:45;14.40;99.90
61016;DHT22;46902;52.920;6.536;2023-05-23T02:41:10;14.40;99.90
61016;DHT22;46902;52.920;6.536;2023-05-23T02:43:37;14.40;99.90
61016;DHT22;46902;52.920;6.536;2023-05-23T02:46:02;14.40;99.90
61016;DHT22;46902;52.920;6.536;2023-05-23T02:48:28;14.40;99.90
61016;DHT22;46902;52.920;6.536;2023-05-23T02:50:53;14.40;99.90
61016;DHT22;46902;52.920;6.536;2023-05-23T02:53:19;14.40;99.90
61016;DHT22;46902;52.920;6.536;2023-05-23T02:55:45;14.30;99.90
61016;DHT22;46902;52.920;6.536;2023-05-23T02:58:10;14.30;99.90
61016;DHT22;46902;52.920;6.536;2023-05-23T03:00:36;14.30;99.90
61016;DHT22;46902;52.920;6.536;2023-05-23T03:03:02;14.30;99.90
61016;DHT22;46902;52.920;6.536;2023-05-23T03:05:28;14.30;99.90
61016;DHT22;46902;52.920;6.536;2023-05-23T03:07:53;14.20;99.90
61016;DHT22;46902;52.920;6.536;2023-05-23T03:10:19;14.10;99.90
61016;DHT22;46902;52.920;6.536;2023-05-23T03:12:45;14.20;99.90
61016;DHT22;46902;52.920;6.536;2023-05-23T03:15:11;14.10;99.90
61016;DHT22;46902;52.920;6.536;2023-05-23T03:17:37;14.10;99.90
61016;DHT22;46902;52.920;6.536;2023-05-23T03:20:03;14.10;99.90
61016;DHT22;46902;52.920;6.536;2023-05-23T03:22:29;14.00;99.90
61016;DHT22;46902;52.920;6.536;2023-05-23T03:24:55;14.00;99.90
61016;DHT22;46902;52.920;6.536;2023-05-23T03:27:21;14.00;99.90
61016;DHT22;46902;52.920;6.536;2023-05-23T03:29:46;14.00;99.90
61016;DHT22;46902;52.920;6.536;2023-05-23T03:32:13;14.00;99.90
61016;DHT22;46902;52.920;6.536;2023-05-23T03:34:38;14.00;99.90
61016;DHT22;46902;52.920;6.536;2023-05-23T03:37:04;14.00;99.90
61016;DHT22;46902;52.920;6.536;2023-05-23T03:39:30;14.00;99.90
61016;DHT22;46902;52.920;6.536;2023-05-23T03:41:55;13.90;99.90
61016;DHT22;46902;52.920;6.536;2023-05-23T03:44:21;13.90;99.90
61016;DHT22;46902;52.920;6.536;2023-05-23T03:46:46;13.90;99.90
61016;DHT22;46902;52.920;6.536;2023-05-23T03:49:12;13.90;99.90
61016;DHT22;46902;52.920;6.536;2023-05-23T03:51:38;13.90;99.90
61016;DHT22;46902;52.920;6.536;2023-05-23T03:54:03;13.80;99.90
61016;DHT22;46902;52.920;6.536;2023-05-23T03:56:29;13.80;99.90
61016;DHT22;46902;52.920;6.536;2023-05-23T03:58:55;13.80;99.90
61016;DHT22;46902;52.920;6.536;2023-05-23T04:01:20;13.90;99.90
61016;DHT22;46902;52.920;6.536;2023-05-23T04:03:46;13.90;99.90
61016;DHT22;46902;52.920;6.536;2023-05-23T04:06:12;13.90;99.90
61016;DHT22;46902;52.920;6.536;2023-05-23T04:08:38;13.90;99.90
61016;DHT22;46902;52.920;6.536;2023-05-23T04:11:06;13.90;99.90
61016;DHT22;46902;52.920;6.536;2023-05-23T04:13:32;13.90;99.90
61016;DHT22;46902;52.920;6.536;2023-05-23T04:15:59;13.80;99.90
61016;DHT22;46902;52.920;6.536;2023-05-23T04:18:26;13.80;99.90
61016;DHT22;46902;52.920;6.536;2023-05-23T04:20:53;13.80;99.90
61016;DHT22;46902;52.920;6.536;2023-05-23T04:23:18;13.80;99.90
61016;DHT22;46902;52.920;6.536;2023-05-23T04:25:44;13.80;99.90
61016;DHT22;46902;52.920;6.536;2023-05-23T04:28:11;13.70;99.90
61016;DHT22;46902;52.920;6.536;2023-05-23T04:30:36;13.70;99.90
61016;DHT22;46902;52.920;6.536;2023-05-23T04:33:02;13.70;99.90
61016;DHT22;46902;52.920;6.536;2023-05-23T04:35:28;13.60;99.90
61016;DHT22;46902;52.920;6.536;2023-05-23T04:37:54;13.60;99.90
61016;DHT22;46902;52.920;6.536;2023-05-23T04:40:24;13.60;99.90
61016;DHT22;46902;52.920;6.536;2023-05-23T04:42:49;13.60;99.90
61016;DHT22;46902;52.920;6.536;2023-05-23T04:45:18;13.50;99.90
61016;DHT22;46902;52.920;6.536;2023-05-23T04:47:46;13.50;99.90
61016;DHT22;46902;52.920;6.536;2023-05-23T04:50:12;13.40;99.90
61016;DHT22;46902;52.920;6.536;2023-05-23T04:52:39;13.50;99.90
61016;DHT22;46902;52.920;6.536;2023-05-23T04:55:06;13.50;99.90
61016;DHT22;46902;52.920;6.536;2023-05-23T04:57:33;13.50;99.90
61016;DHT22;46902;52.920;6.536;2023-05-23T04:59:59;13.50;99.90
61016;DHT22;46902;52.920;6.536;2023-05-23T05:02:25;13.40;99.90
61016;DHT22;46902;52.920;6.536;2023-05-23T05:04:52;13.40;99.90
61016;DHT22;46902;52.920;6.536;2023-05-23T05:07:17;13.40;99.90
61016;DHT22;46902;52.920;6.536;2023-05-23T05:09:43;13.40;99.90
61016;DHT22;46902;52.920;6.536;2023-05-23T05:12:09;13.40;99.90
61016;DHT22;46902;52.920;6.536;2023-05-23T05:14:34;13.40;99.90
61016;DHT22;46902;52.920;6.536;2023-05-23T05:17:00;13.40;99.90
61016;DHT22;46902;52.920;6.536;2023-05-23T05:19:26;13.40;99.90
61016;DHT22;46902;52.920;6.536;2023-05-23T05:21:52;13.40;99.90
61016;DHT22;46902;52.920;6.536;2023-05-23T05:24:18;13.50;99.90
61016;DHT22;46902;52.920;6.536;2023-05-23T05:26:46;13.40;99.90
61016;DHT22;46902;52.920;6.536;2023-05-23T05:29:12;13.40;99.90
61016;DHT22;46902;52.920;6.536;2023-05-23T05:31:37;13.40;99.90
61016;DHT22;46902;52.920;6.536;2023-05-23T05:34:03;13.30;99.90
61016;DHT22;46902;52.920;6.536;2023-05-23T05:36:29;13.30;99.90
61016;DHT22;46902;52.920;6.536;2023-05-23T05:38:56;13.20;99.90
61016;DHT22;46902;52.920;6.536;2023-05-23T05:41:21;13.10;99.90
61016;DHT22;46902;52.920;6.536;2023-05-23T05:43:47;13.00;99.90
61016;DHT22;46902;52.920;6.536;2023-05-23T05:46:13;13.00;99.90
61016;DHT22;46902;52.920;6.536;2023-05-23T05:48:38;12.90;99.90
61016;DHT22;46902;52.920;6.536;2023-05-23T05:51:04;12.90;99.90
61016;DHT22;46902;52.920;6.536;2023-05-23T05:53:30;12.90;99.90
61016;DHT22;46902;52.920;6.536;2023-05-23T05:55:55;13.00;99.90
61016;DHT22;46902;52.920;6.536;2023-05-23T05:58:21;13.00;99.90
61016;DHT22;46902;52.920;6.536;2023-05-23T06:00:47;13.00;99.90
61016;DHT22;46902;52.920;6.536;2023-05-23T06:03:13;13.00;99.90
61016;DHT22;46902;52.920;6.536;2023-05-23T06:05:40;12.90;99.90
61016;DHT22;46902;52.920;6.536;2023-05-23T06:08:05;13.00;99.90
61016;DHT22;46902;52.920;6.536;2023-05-23T06:10:31;12.90;99.90
61016;DHT22;46902;52.920;6.536;2023-05-23T06:12:57;13.00;99.90
61016;DHT22;46902;52.920;6.536;2023-05-23T06:15:24;12.90;99.90
61016;DHT22;46902;52.920;6.536;2023-05-23T06:17:50;12.90;99.90
61016;DHT22;46902;52.920;6.536;2023-05-23T06:20:16;12.90;99.90
61016;DHT22;46902;52.920;6.536;2023-05-23T06:22:41;12.90;99.90
61016;DHT22;46902;52.920;6.536;2023-05-23T06:25:07;12.90;99.90
61016;DHT22;46902;52.920;6.536;2023-05-23T06:27:33;12.80;99.90
61016;DHT22;46902;52.920;6.536;2023-05-23T06:29:59;12.90;99.90
61016;DHT22;46902;52.920;6.536;2023-05-23T06:32:24;12.80;99.90
61016;DHT22;46902;52.920;6.536;2023-05-23T06:34:50;12.90;99.90
61016;DHT22;46902;52.920;6.536;2023-05-23T06:37:15;12.90;99.90
61016;DHT22;46902;52.920;6.536;2023-05-23T06:39:42;12.80;99.90
61016;DHT22;46902;52.920;6.536;2023-05-23T06:42:08;12.80;99.90
61016;DHT22;46902;52.920;6.536;2023-05-23T06:44:34;12.80;99.90
61016;DHT22;46902;52.920;6.536;2023-05-23T06:46:59;12.90;99.90
61016;DHT22;46902;52.920;6.536;2023-05-23T06:49:25;12.90;99.90
61016;DHT22;46902;52.920;6.536;2023-05-23T06:51:51;12.90;99.90
61016;DHT22;46902;52.920;6.536;2023-05-23T06:54:17;12.90;99.90
61016;DHT22;46902;52.920;6.536;2023-05-23T06:56:43;12.90;99.90
61016;DHT22;46902;52.920;6.536;2023-05-23T06:59:08;13.00;99.90
61016;DHT22;46902;52.920;6.536;2023-05-23T07:01:34;13.10;99.90
61016;DHT22;46902;52.920;6.536;2023-05-23T07:04:00;13.20;99.90
61016;DHT22;46902;52.920;6.536;2023-05-23T07:06:25;13.30;99.90
61016;DHT22;46902;52.920;6.536;2023-05-23T07:08:54;13.50;99.90
61016;DHT22;46902;52.920;6.536;2023-05-23T07:11:21;13.60;99.90
61016;DHT22;46902;52.920;6.536;2023-05-23T07:13:46;13.70;99.90
61016;DHT22;46902;52.920;6.536;2023-05-23T07:16:12;13.70;99.90
61016;DHT22;46902;52.920;6.536;2023-05-23T07:18:38;13.70;99.90
61016;DHT22;46902;52.920;6.536;2023-05-23T07:21:04;13.70;99.90
61016;DHT22;46902;52.920;6.536;2023-05-23T07:23:33;13.60;99.90
61016;DHT22;46902;52.920;6.536;2023-05-23T07:25:59;13.60;99.90
61016;DHT22;46902;52.920;6.536;2023-05-23T07:28:25;13.50;99.90
61016;DHT22;46902;52.920;6.536;2023-05-23T07:30:51;13.50;99.90
61016;DHT22;46902;52.920;6.536;2023-05-23T07:33:16;13.50;99.90
61016;DHT22;46902;52.920;6.536;2023-05-23T07:35:43;13.50;99.90
61016;DHT22;46902;52.920;6.536;2023-05-23T07:38:09;13.60;99.90
61016;DHT22;46902;52.920;6.536;2023-05-23T07:40:34;13.60;99.90
61016;DHT22;46902;52.920;6.536;2023-05-23T07:43:01;13.70;99.90
61016;DHT22;46902;52.920;6.536;2023-05-23T07:45:27;13.60;99.80
61016;DHT22;46902;52.920;6.536;2023-05-23T07:47:53;13.60;99.60
61016;DHT22;46902;52.920;6.536;2023-05-23T07:50:18;13.50;99.50
61016;DHT22;46902;52.920;6.536;2023-05-23T07:52:44;13.40;99.40
61016;DHT22;46902;52.920;6.536;2023-05-23T07:55:10;13.40;99.70
61016;DHT22;46902;52.920;6.536;2023-05-23T07:57:35;13.40;99.70
61016;DHT22;46902;52.920;6.536;2023-05-23T08:00:01;13.40;99.90
61016;DHT22;46902;52.920;6.536;2023-05-23T08:02:26;13.40;99.80
61016;DHT22;46902;52.920;6.536;2023-05-23T08:04:52;13.50;99.80
61016;DHT22;46902;52.920;6.536;2023-05-23T08:07:18;13.60;99.40
61016;DHT22;46902;52.920;6.536;2023-05-23T08:09:44;13.70;99.20
61016;DHT22;46902;52.920;6.536;2023-05-23T08:12:09;13.60;98.60
61016;DHT22;46902;52.920;6.536;2023-05-23T08:14:35;13.70;98.30
61016;DHT22;46902;52.920;6.536;2023-05-23T08:17:01;13.80;98.20
61016;DHT22;46902;52.920;6.536;2023-05-23T08:19:27;13.90;97.70
61016;DHT22;46902;52.920;6.536;2023-05-23T08:21:53;13.90;97.20
61016;DHT22;46902;52.920;6.536;2023-05-23T08:24:19;13.90;97.00
61016;DHT22;46902;52.920;6.536;2023-05-23T08:26:45;13.90;97.10
61016;DHT22;46902;52.920;6.536;2023-05-23T08:29:11;14.00;97.40
61016;DHT22;46902;52.920;6.536;2023-05-23T08:31:37;14.00;96.40
61016;DHT22;46902;52.920;6.536;2023-05-23T08:34:02;14.00;95.90
61016;DHT22;46902;52.920;6.536;2023-05-23T08:36:28;14.20;95.60
61016;DHT22;46902;52.920;6.536;2023-05-23T08:38:54;14.30;95.20
61016;DHT22;46902;52.920;6.536;2023-05-23T08:41:24;14.60;94.80
61016;DHT22;46902;52.920;6.536;2023-05-23T08:43:51;14.60;93.90
61016;DHT22;46902;52.920;6.536;2023-05-23T08:46:17;14.70;93.80
61016;DHT22;46902;52.920;6.536;2023-05-23T08:48:43;14.60;93.60
61016;DHT22;46902;52.920;6.536;2023-05-23T08:51:13;14.60;93.20
61016;DHT22;46902;52.920;6.536;2023-05-23T08:53:41;14.70;92.80
61016;DHT22;46902;52.920;6.536;2023-05-23T08:56:18;14.80;92.80
61016;DHT22;46902;52.920;6.536;2023-05-23T08:58:45;15.10;93.00
61016;DHT22;46902;52.920;6.536;2023-05-23T09:01:12;15.30;92.70
61016;DHT22;46902;52.920;6.536;2023-05-23T09:03:39;15.50;92.40
61016;DHT22;46902;52.920;6.536;2023-05-23T09:06:07;15.80;92.00
61016;DHT22;46902;52.920;6.536;2023-05-23T09:08:33;16.10;91.20
61016;DHT22;46902;52.920;6.536;2023-05-23T09:11:00;16.30;90.70
61016;DHT22;46902;52.920;6.536;2023-05-23T09:13:29;16.30;90.10
61016;DHT22;46902;52.920;6.536;2023-05-23T09:16:08;16.10;88.20
61016;DHT22;46902;52.920;6.536;2023-05-23T09:18:42;16.00;86.40
61016;DHT22;46902;52.920;6.536;2023-05-23T09:21:09;16.00;86.40
61016;DHT22;46902;52.920;6.536;2023-05-23T09:23:36;16.00;86.40
61016;DHT22;46902;52.920;6.536;2023-05-23T09:26:06;16.10;86.30
61016;DHT22;46902;52.920;6.536;2023-05-23T09:28:33;16.20;86.00
61016;DHT22;46902;52.920;6.536;2023-05-23T09:31:04;16.30;84.50
61016;DHT22;46902;52.920;6.536;2023-05-23T09:36:09;16.50;82.20
61016;DHT22;46902;52.920;6.536;2023-05-23T09:38:39;16.60;83.60
61016;DHT22;46902;52.920;6.536;2023-05-23T09:41:05;16.90;82.10
61016;DHT22;46902;52.920;6.536;2023-05-23T09:43:31;17.20;82.50
61016;DHT22;46902;52.920;6.536;2023-05-23T09:46:07;17.20;80.40
61016;DHT22;46902;52.920;6.536;2023-05-23T09:48:33;17.30;78.80
61016;DHT22;46902;52.920;6.536;2023-05-23T09:51:07;17.40;79.70
61016;DHT22;46902;52.920;6.536;2023-05-23T09:53:33;17.20;79.00
61016;DHT22;46902;52.920;6.536;2023-05-23T09:56:01;17.10;79.50
61016;DHT22;46902;52.920;6.536;2023-05-23T09:58:28;16.90;79.00
61016;DHT22;46902;52.920;6.536;2023-05-23T10:00:55;16.80;78.40
61016;DHT22;46902;52.920;6.536;2023-05-23T10:03:36;16.70;78.00
61016;DHT22;46902;52.920;6.536;2023-05-23T10:06:24;16.80;78.10
61016;DHT22;46902;52.920;6.536;2023-05-23T10:08:58;17.00;78.20
61016;DHT22;46902;52.920;6.536;2023-05-23T10:12:20;17.20;77.90
61016;DHT22;46902;52.920;6.536;2023-05-23T10:14:15;17.30;78.00
61016;DHT22;46902;52.920;6.536;2023-05-23T10:22:02;17.30;77.10
61016;DHT22;46902;52.920;6.536;2023-05-23T10:24:29;17.20;76.30
61016;DHT22;46902;52.920;6.536;2023-05-23T10:26:55;17.30;76.10
61016;DHT22;46902;52.920;6.536;2023-05-23T10:29:22;17.50;75.90
61016;DHT22;46902;52.920;6.536;2023-05-23T10:31:48;17.90;76.30
61016;DHT22;46902;52.920;6.536;2023-05-23T10:34:26;17.90;74.80
61016;DHT22;46902;52.920;6.536;2023-05-23T10:37:04;17.70;74.10
61016;DHT22;46902;52.920;6.536;2023-05-23T10:39:41;17.70;75.00
61016;DHT22;46902;52.920;6.536;2023-05-23T10:42:14;17.80;74.00
61016;DHT22;46902;52.920;6.536;2023-05-23T10:44:41;18.00;73.40
61016;DHT22;46902;52.920;6.536;2023-05-23T10:47:07;18.20;74.00
61016;DHT22;46902;52.920;6.536;2023-05-23T10:49:53;18.60;73.60
61016;DHT22;46902;52.920;6.536;2023-05-23T10:52:19;18.70;71.00
61016;DHT22;46902;52.920;6.536;2023-05-23T10:54:51;18.70;71.70
61016;DHT22;46902;52.920;6.536;2023-05-23T10:57:24;18.60;71.80
61016;DHT22;46902;52.920;6.536;2023-05-23T10:59:53;18.30;69.90
61016;DHT22;46902;52.920;6.536;2023-05-23T11:02:25;18.10;69.50
61016;DHT22;46902;52.920;6.536;2023-05-23T11:05:19;18.00;69.00
61016;DHT22;46902;52.920;6.536;2023-05-23T11:08:09;18.30;70.00
61016;DHT22;46902;52.920;6.536;2023-05-23T11:11:02;18.50;67.90
61016;DHT22;46902;52.920;6.536;2023-05-23T11:13:57;18.50;67.00
61016;DHT22;46902;52.920;6.536;2023-05-23T11:16:34;18.50;68.10
61016;DHT22;46902;52.920;6.536;2023-05-23T11:22:01;18.40;67.80
61016;DHT22;46902;52.920;6.536;2023-05-23T11:24:52;18.30;67.90
61016;DHT22;46902;52.920;6.536;2023-05-23T11:27:35;18.10;67.30
61016;DHT22;46902;52.920;6.536;2023-05-23T11:32:34;17.80;69.30
61016;DHT22;46902;52.920;6.536;2023-05-23T11:35:05;17.70;68.60
61016;DHT22;46902;52.920;6.536;2023-05-23T11:37:31;17.60;68.70
61016;DHT22;46902;52.920;6.536;2023-05-23T11:39:57;17.50;69.00
61016;DHT22;46902;52.920;6.536;2023-05-23T11:42:23;17.30;69.10
61016;DHT22;46902;52.920;6.536;2023-05-23T11:44:52;17.30;70.00
61016;DHT22;46902;52.920;6.536;2023-05-23T11:47:18;17.10;70.30
61016;DHT22;46902;52.920;6.536;2023-05-23T11:49:45;17.00;70.50
61016;DHT22;46902;52.920;6.536;2023-05-23T11:52:12;16.90;70.60
61016;DHT22;46902;52.920;6.536;2023-05-23T11:54:40;17.00;71.50
61016;DHT22;46902;52.920;6.536;2023-05-23T11:57:06;17.10;70.70
61016;DHT22;46902;52.920;6.536;2023-05-23T11:59:33;17.20;70.50
61016;DHT22;46902;52.920;6.536;2023-05-23T12:02:00;17.20;70.10
61016;DHT22;46902;52.920;6.536;2023-05-23T12:04:27;17.30;69.90
61016;DHT22;46902;52.920;6.536;2023-05-23T12:06:52;17.40;70.00
61016;DHT22;46902;52.920;6.536;2023-05-23T12:09:18;17.60;69.10
61016;DHT22;46902;52.920;6.536;2023-05-23T12:11:44;17.70;68.70
61016;DHT22;46902;52.920;6.536;2023-05-23T12:14:16;17.70;68.40
61016;DHT22;46902;52.920;6.536;2023-05-23T12:16:45;17.90;68.90
61016;DHT22;46902;52.920;6.536;2023-05-23T12:19:12;17.90;69.10
61016;DHT22;46902;52.920;6.536;2023-05-23T12:24:17;18.50;68.30
61016;DHT22;46902;52.920;6.536;2023-05-23T12:26:52;18.80;66.50
61016;DHT22;46902;52.920;6.536;2023-05-23T12:29:19;19.00;65.50
61016;DHT22;46902;52.920;6.536;2023-05-23T12:31:48;19.00;65.80
61016;DHT22;46902;52.920;6.536;2023-05-23T12:34:14;18.80;66.10
61016;DHT22;46902;52.920;6.536;2023-05-23T12:36:40;18.60;66.40
61016;DHT22;46902;52.920;6.536;2023-05-23T12:39:07;18.80;66.60
61016;DHT22;46902;52.920;6.536;2023-05-23T12:41:33;19.00;65.40
61016;DHT22;46902;52.920;6.536;2023-05-23T12:43:59;19.00;65.40
61016;DHT22;46902;52.920;6.536;2023-05-23T12:46:26;19.10;64.00
61016;DHT22;46902;52.920;6.536;2023-05-23T12:48:52;19.20;63.30
61016;DHT22;46902;52.920;6.536;2023-05-23T12:51:18;19.10;63.20
61016;DHT22;46902;52.920;6.536;2023-05-23T12:53:44;19.00;62.80
61016;DHT22;46902;52.920;6.536;2023-05-23T12:56:10;18.90;62.80
61016;DHT22;46902;52.920;6.536;2023-05-23T12:58:36;18.70;63.60
61016;DHT22;46902;52.920;6.536;2023-05-23T13:01:02;18.60;64.30
61016;DHT22;46902;52.920;6.536;2023-05-23T13:03:28;18.80;64.70
61016;DHT22;46902;52.920;6.536;2023-05-23T13:05:55;19.00;64.80
61016;DHT22;46902;52.920;6.536;2023-05-23T13:08:22;19.00;63.60
61016;DHT22;46902;52.920;6.536;2023-05-23T13:10:48;18.90;64.30
61016;DHT22;46902;52.920;6.536;2023-05-23T13:13:14;18.70;63.80
61016;DHT22;46902;52.920;6.536;2023-05-23T13:15:39;18.60;64.40
61016;DHT22;46902;52.920;6.536;2023-05-23T13:18:05;18.50;64.60
61016;DHT22;46902;52.920;6.536;2023-05-23T13:20:31;18.50;64.60
61016;DHT22;46902;52.920;6.536;2023-05-23T13:22:57;18.40;61.40
61016;DHT22;46902;52.920;6.536;2023-05-23T13:25:23;18.40;60.60
61016;DHT22;46902;52.920;6.536;2023-05-23T13:27:49;18.50;60.80
61016;DHT22;46902;52.920;6.536;2023-05-23T13:30:15;18.40;61.20
61016;DHT22;46902;52.920;6.536;2023-05-23T13:32:41;18.50;62.30
61016;DHT22;46902;52.920;6.536;2023-05-23T13:35:07;18.40;62.00
61016;DHT22;46902;52.920;6.536;2023-05-23T13:37:32;18.30;62.10
61016;DHT22;46902;52.920;6.536;2023-05-23T13:40:00;18.20;63.10
61016;DHT22;46902;52.920;6.536;2023-05-23T13:42:26;18.10;63.10
61016;DHT22;46902;52.920;6.536;2023-05-23T13:44:52;17.90;63.20
61016;DHT22;46902;52.920;6.536;2023-05-23T13:47:18;17.90;63.30
61016;DHT22;46902;52.920;6.536;2023-05-23T13:49:43;18.00;62.40
61016;DHT22;46902;52.920;6.536;2023-05-23T13:52:09;18.30;60.80
61016;DHT22;46902;52.920;6.536;2023-05-23T13:54:35;18.40;60.70
61016;DHT22;46902;52.920;6.536;2023-05-23T13:57:01;18.40;61.00
61016;DHT22;46902;52.920;6.536;2023-05-23T13:59:27;18.70;61.90
61016;DHT22;46902;52.920;6.536;2023-05-23T14:01:52;18.90;61.60
61016;DHT22;46902;52.920;6.536;2023-05-23T14:04:18;19.00;61.90
61016;DHT22;46902;52.920;6.536;2023-05-23T14:06:44;19.10;61.70
61016;DHT22;46902;52.920;6.536;2023-05-23T14:09:10;19.20;61.70
61016;DHT22;46902;52.920;6.536;2023-05-23T14:11:37;19.20;60.60
61016;DHT22;46902;52.920;6.536;2023-05-23T14:14:02;19.10;59.00
61016;DHT22;46902;52.920;6.536;2023-05-23T14:16:28;19.00;59.70
61016;DHT22;46902;52.920;6.536;2023-05-23T14:18:54;19.20;59.80
61016;DHT22;46902;52.920;6.536;2023-05-23T14:21:20;19.40;60.20
61016;DHT22;46902;52.920;6.536;2023-05-23T14:23:46;19.50;58.40
61016;DHT22;46902;52.920;6.536;2023-05-23T14:26:11;19.60;58.30
61016;DHT22;46902;52.920;6.536;2023-05-23T14:28:37;19.60;58.40
61016;DHT22;46902;52.920;6.536;2023-05-23T14:31:03;19.40;57.80
61016;DHT22;46902;52.920;6.536;2023-05-23T14:33:28;19.10;58.20
61016;DHT22;46902;52.920;6.536;2023-05-23T14:35:54;18.90;59.20
61016;DHT22;46902;52.920;6.536;2023-05-23T14:38:19;19.00;60.70
61016;DHT22;46902;52.920;6.536;2023-05-23T14:40:45;18.90;59.30
61016;DHT22;46902;52.920;6.536;2023-05-23T14:43:11;19.00;59.80
61016;DHT22;46902;52.920;6.536;2023-05-23T14:45:37;19.10;59.30
61016;DHT22;46902;52.920;6.536;2023-05-23T14:48:04;19.30;58.40
61016;DHT22;46902;52.920;6.536;2023-05-23T14:50:29;19.50;59.20
61016;DHT22;46902;52.920;6.536;2023-05-23T14:52:55;19.80;57.60
61016;DHT22;46902;52.920;6.536;2023-05-23T14:55:21;19.80;57.10
61016;DHT22;46902;52.920;6.536;2023-05-23T14:57:46;19.70;56.00
61016;DHT22;46902;52.920;6.536;2023-05-23T15:00:12;19.50;56.40
61016;DHT22;46902;52.920;6.536;2023-05-23T15:02:38;19.50;57.70
61016;DHT22;46902;52.920;6.536;2023-05-23T15:05:04;19.50;57.10
61016;DHT22;46902;52.920;6.536;2023-05-23T15:07:30;19.50;56.90
61016;DHT22;46902;52.920;6.536;2023-05-23T15:09:57;19.50;56.80
61016;DHT22;46902;52.920;6.536;2023-05-23T15:12:22;19.50;56.80
61016;DHT22;46902;52.920;6.536;2023-05-23T15:14:48;19.50;57.50
61016;DHT22;46902;52.920;6.536;2023-05-23T15:17:14;19.30;57.70
61016;DHT22;46902;52.920;6.536;2023-05-23T15:19:44;19.20;57.80
61016;DHT22;46902;52.920;6.536;2023-05-23T15:22:10;19.10;57.60
61016;DHT22;46902;52.920;6.536;2023-05-23T15:24:36;19.00;58.00
61016;DHT22;46902;52.920;6.536;2023-05-23T15:27:02;19.00;59.10
61016;DHT22;46902;52.920;6.536;2023-05-23T15:29:28;19.00;59.60
61016;DHT22;46902;52.920;6.536;2023-05-23T15:31:53;19.00;58.70
61016;DHT22;46902;52.920;6.536;2023-05-23T15:34:19;19.00;57.80
61016;DHT22;46902;52.920;6.536;2023-05-23T15:36:45;19.10;55.90
61016;DHT22;46902;52.920;6.536;2023-05-23T15:39:11;19.00;56.00
61016;DHT22;46902;52.920;6.536;2023-05-23T15:41:37;18.90;56.10
61016;DHT22;46902;52.920;6.536;2023-05-23T15:44:03;18.80;56.00
61016;DHT22;46902;52.920;6.536;2023-05-23T15:46:28;18.60;56.40
61016;DHT22;46902;52.920;6.536;2023-05-23T15:48:54;18.40;56.90